sensor_id;sensor_type;location;lat;lon;timestamp;temperature;humidity
20125;DHT22;10223;50.862;4.360;2023-12-20T00:01:01;7.40;99.90
20125;DHT22;10223;50.862;4.360;2023-12-20T00:03:28;7.30;99.90
20125;DHT22;10223;50.862;4.360;2023-12-20T00:05:55;7.20;99.90
20125;DHT22;10223;50.862;4.360;2023-12-20T00:08:22;7.20;99.90
20125;DHT22;10223;50.862;4.360;2023-12-20T00:10:49;7.20;99.90
20125;DHT22;10223;50.862;4.360;2023-12-20T00:13:16;7.20;99.90
20125;DHT22;10223;50.862;4.360;2023-12-20T00:15:44;7.10;99.90
20125;DHT22;10223;50.862;4.360;2023-12-20T00:18:11;7.10;99.90
20125;DHT22;10223;50.862;4.360;2023-12-20T00:20:38;7.10;99.90
20125;DHT22;10223;50.862;4.360;2023-12-20T00:23:05;7.10;99.90
20125;DHT22;10223;50.862;4.360;2023-12-20T00:25:33;7.30;99.90
20125;DHT22;10223;50.862;4.360;2023-12-20T00:28:00;7.10;99.90
20125;DHT22;10223;50.862;4.360;2023-12-20T00:30:27;7.10;99.90
20125;DHT22;10223;50.862;4.360;2023-12-20T00:32:56;7.10;99.90
20125;DHT22;10223;50.862;4.360;2023-12-20T00:35:23;7.20;99.90
20125;DHT22;10223;50.862;4.360;2023-12-20T00:37:50;7.10;99.90
20125;DHT22;10223;50.862;4.360;2023-12-20T00:40:17;7.00;99.90
20125;DHT22;10223;50.862;4.360;2023-12-20T00:42:44;6.90;99.90
20125;DHT22;10223;50.862;4.360;2023-12-20T00:45:12;7.00;99.90
20125;DHT22;10223;50.862;4.360;2023-12-20T00:47:40;6.90;99.90
20125;DHT22;10223;50.862;4.360;2023-12-20T00:50:09;6.90;99.90
20125;DHT22;10223;50.862;4.360;2023-12-20T00:52:36;6.90;99.90
20125;DHT22;10223;50.862;4.360;2023-12-20T00:55:03;6.80;99.90
20125;DHT22;10223;50.862;4.360;2023-12-20T00:57:30;6.80;99.90
20125;DHT22;10223;50.862;4.360;2023-12-20T00:59:57;6.80;99.90
20125;DHT22;10223;50.862;4.360;2023-12-20T01:02:24;6.90;99.90
20125;DHT22;10223;50.862;4.360;2023-12-20T01:04:51;6.90;99.90
20125;DHT22;10223;50.862;4.360;2023-12-20T01:07:19;6.80;99.90
20125;DHT22;10223;50.862;4.360;2023-12-20T01:09:46;6.90;99.90
20125;DHT22;10223;50.862;4.360;2023-12-20T01:12:13;6.90;99.90
20125;DHT22;10223;50.862;4.360;2023-12-20T01:14:40;6.80;99.90
20125;DHT22;10223;50.862;4.360;2023-12-20T01:17:07;6.80;99.90
20125;DHT22;10223;50.862;4.360;2023-12-20T01:19:35;6.70;99.90
20125;DHT22;10223;50.862;4.360;2023-12-20T01:22:02;6.70;99.90
20125;DHT22;10223;50.862;4.360;2023-12-20T01:24:30;6.70;99.90
20125;DHT22;10223;50.862;4.360;2023-12-20T01:26:57;6.70;99.90
20125;DHT22;10223;50.862;4.360;2023-12-20T01:29:24;6.80;99.90
20125;DHT22;10223;50.862;4.360;2023-12-20T01:31:51;6.70;99.90
20125;DHT22;10223;50.862;4.360;2023-12-20T01:34:18;6.70;99.90
20125;DHT22;10223;50.862;4.360;2023-12-20T01:36:45;6.70;99.90
20125;DHT22;10223;50.862;4.360;2023-12-20T01:39:12;6.60;99.90
20125;DHT22;10223;50.862;4.360;2023-12-20T01:41:40;6.70;99.90
20125;DHT22;10223;50.862;4.360;2023-12-20T01:44:07;6.70;99.90
20125;DHT22;10223;50.862;4.360;2023-12-20T01:46:34;6.60;99.90
20125;DHT22;10223;50.862;4.360;2023-12-20T01:49:01;6.60;99.90
20125;DHT22;10223;50.862;4.360;2023-12-20T01:51:29;6.60;99.90
20125;DHT22;10223;50.862;4.360;2023-12-20T01:53:56;6.70;99.90
20125;DHT22;10223;50.862;4.360;2023-12-20T01:56:24;6.70;99.90
20125;DHT22;10223;50.862;4.360;2023-12-20T01:58:53;6.70;99.90
20125;DHT22;10223;50.862;4.360;2023-12-20T02:01:20;6.80;99.90
20125;DHT22;10223;50.862;4.360;2023-12-20T02:03:47;6.70;99.90
20125;DHT22;10223;50.862;4.360;2023-12-20T02:06:15;6.70;99.90
20125;DHT22;10223;50.862;4.360;2023-12-20T02:08:42;6.70;99.90
20125;DHT22;10223;50.862;4.360;2023-12-20T02:11:10;6.70;99.90
20125;DHT22;10223;50.862;4.360;2023-12-20T02:13:37;6.60;99.90
20125;DHT22;10223;50.862;4.360;2023-12-20T02:16:07;6.70;99.90
20125;DHT22;10223;50.862;4.360;2023-12-20T02:18:34;6.50;99.90
20125;DHT22;10223;50.862;4.360;2023-12-20T02:21:04;6.50;99.90
20125;DHT22;10223;50.862;4.360;2023-12-20T02:23:32;6.50;99.90
20125;DHT22;10223;50.862;4.360;2023-12-20T02:25:59;6.60;99.90
20125;DHT22;10223;50.862;4.360;2023-12-20T02:28:26;6.70;99.90
20125;DHT22;10223;50.862;4.360;2023-12-20T02:30:54;6.60;99.90
20125;DHT22;10223;50.862;4.360;2023-12-20T02:33:21;6.60;99.90
20125;DHT22;10223;50.862;4.360;2023-12-20T02:35:48;6.50;99.90
20125;DHT22;10223;50.862;4.360;2023-12-20T02:38:15;6.50;99.90
20125;DHT22;10223;50.862;4.360;2023-12-20T02:40:44;6.50;99.90
20125;DHT22;10223;50.862;4.360;2023-12-20T02:43:11;6.60;99.90
20125;DHT22;10223;50.862;4.360;2023-12-20T02:45:38;6.50;99.90
20125;DHT22;10223;50.862;4.360;2023-12-20T02:48:05;6.50;99.90
20125;DHT22;10223;50.862;4.360;2023-12-20T02:50:32;6.50;99.90
20125;DHT22;10223;50.862;4.360;2023-12-20T02:52:59;6.50;99.90
20125;DHT22;10223;50.862;4.360;2023-12-20T02:55:26;6.50;99.90
20125;DHT22;10223;50.862;4.360;2023-12-20T02:57:54;6.50;99.90
20125;DHT22;10223;50.862;4.360;2023-12-20T03:00:21;6.40;99.90
20125;DHT22;10223;50.862;4.360;2023-12-20T03:02:48;6.40;99.90
20125;DHT22;10223;50.862;4.360;2023-12-20T03:05:15;6.40;99.90
20125;DHT22;10223;50.862;4.360;2023-12-20T03:07:42;6.50;99.90
20125;DHT22;10223;50.862;4.360;2023-12-20T03:10:09;6.50;99.90
20125;DHT22;10223;50.862;4.360;2023-12-20T03:12:36;6.50;99.90
20125;DHT22;10223;50.862;4.360;2023-12-20T03:15:04;6.50;99.90
20125;DHT22;10223;50.862;4.360;2023-12-20T03:17:31;6.60;99.90
20125;DHT22;10223;50.862;4.360;2023-12-20T03:19:58;6.50;99.90
20125;DHT22;10223;50.862;4.360;2023-12-20T03:22:25;6.50;99.90
20125;DHT22;10223;50.862;4.360;2023-12-20T03:24:52;6.60;99.90
20125;DHT22;10223;50.862;4.360;2023-12-20T03:27:19;6.50;99.90
20125;DHT22;10223;50.862;4.360;2023-12-20T03:29:46;6.50;99.90
20125;DHT22;10223;50.862;4.360;2023-12-20T03:32:14;6.50;99.90
20125;DHT22;10223;50.862;4.360;2023-12-20T03:34:41;6.50;99.90
20125;DHT22;10223;50.862;4.360;2023-12-20T03:37:08;6.50;99.90
20125;DHT22;10223;50.862;4.360;2023-12-20T03:39:35;6.50;99.90
20125;DHT22;10223;50.862;4.360;2023-12-20T03:42:02;6.50;99.90
20125;DHT22;10223;50.862;4.360;2023-12-20T03:44:29;6.50;99.90
20125;DHT22;10223;50.862;4.360;2023-12-20T03:46:56;6.50;99.90
20125;DHT22;10223;50.862;4.360;2023-12-20T03:49:25;6.60;99.90
20125;DHT22;10223;50.862;4.360;2023-12-20T03:51:52;6.40;99.90
20125;DHT22;10223;50.862;4.360;2023-12-20T03:54:18;6.50;99.90
20125;DHT22;10223;50.862;4.360;2023-12-20T03:56:45;6.40;99.90
20125;DHT22;10223;50.862;4.360;2023-12-20T03:59:12;6.40;99.90
20125;DHT22;10223;50.862;4.360;2023-12-20T04:01:43;6.40;99.90
20125;DHT22;10223;50.862;4.360;2023-12-20T04:04:10;6.40;99.90
20125;DHT22;10223;50.862;4.360;2023-12-20T04:06:38;6.60;99.90
20125;DHT22;10223;50.862;4.360;2023-12-20T04:09:05;6.50;99.90
20125;DHT22;10223;50.862;4.360;2023-12-20T04:11:34;6.50;99.90
20125;DHT22;10223;50.862;4.360;2023-12-20T04:14:01;6.50;99.90
20125;DHT22;10223;50.862;4.360;2023-12-20T04:16:28;6.50;99.90
20125;DHT22;10223;50.862;4.360;2023-12-20T04:18:55;6.50;99.90
20125;DHT22;10223;50.862;4.360;2023-12-20T04:21:22;6.50;99.90
20125;DHT22;10223;50.862;4.360;2023-12-20T04:23:50;6.70;99.90
20125;DHT22;10223;50.862;4.360;2023-12-20T04:26:17;6.50;99.90
20125;DHT22;10223;50.862;4.360;2023-12-20T04:28:44;6.50;99.90
20125;DHT22;10223;50.862;4.360;2023-12-20T04:31:11;6.60;99.90
20125;DHT22;10223;50.862;4.360;2023-12-20T04:33:38;6.50;99.90
20125;DHT22;10223;50.862;4.360;2023-12-20T04:36:05;6.60;99.90
20125;DHT22;10223;50.862;4.360;2023-12-20T04:38:34;6.50;99.90
20125;DHT22;10223;50.862;4.360;2023-12-20T04:41:05;6.40;99.90
20125;DHT22;10223;50.862;4.360;2023-12-20T04:43:32;6.40;99.90
20125;DHT22;10223;50.862;4.360;2023-12-20T04:45:59;6.50;99.90
20125;DHT22;10223;50.862;4.360;2023-12-20T04:48:26;6.50;99.90
20125;DHT22;10223;50.862;4.360;2023-12-20T04:50:53;6.40;99.90
20125;DHT22;10223;50.862;4.360;2023-12-20T04:53:20;6.40;99.90
20125;DHT22;10223;50.862;4.360;2023-12-20T04:55:47;6.50;99.90
20125;DHT22;10223;50.862;4.360;2023-12-20T04:58:15;6.50;99.90
20125;DHT22;10223;50.862;4.360;2023-12-20T05:00:43;6.50;99.90
20125;DHT22;10223;50.862;4.360;2023-12-20T05:03:10;6.50;99.90
20125;DHT22;10223;50.862;4.360;2023-12-20T05:05:37;6.40;99.90
20125;DHT22;10223;50.862;4.360;2023-12-20T05:08:04;6.40;99.90
20125;DHT22;10223;50.862;4.360;2023-12-20T05:10:31;6.40;99.90
20125;DHT22;10223;50.862;4.360;2023-12-20T05:12:58;6.50;99.90
20125;DHT22;10223;50.862;4.360;2023-12-20T05:15:27;6.50;99.90
20125;DHT22;10223;50.862;4.360;2023-12-20T05:17:54;6.50;99.90
20125;DHT22;10223;50.862;4.360;2023-12-20T05:20:21;6.40;99.90
20125;DHT22;10223;50.862;4.360;2023-12-20T05:22:48;6.50;99.90
20125;DHT22;10223;50.862;4.360;2023-12-20T05:25:16;6.40;99.90
20125;DHT22;10223;50.862;4.360;2023-12-20T05:27:43;6.30;99.90
20125;DHT22;10223;50.862;4.360;2023-12-20T05:30:11;6.30;99.90
20125;DHT22;10223;50.862;4.360;2023-12-20T05:32:39;6.20;99.90
20125;DHT22;10223;50.862;4.360;2023-12-20T05:35:06;6.30;99.90
20125;DHT22;10223;50.862;4.360;2023-12-20T05:37:33;6.30;99.90
20125;DHT22;10223;50.862;4.360;2023-12-20T05:40:00;6.30;99.90
20125;DHT22;10223;50.862;4.360;2023-12-20T05:42:28;6.30;99.90
20125;DHT22;10223;50.862;4.360;2023-12-20T05:44:55;6.20;99.90
20125;DHT22;10223;50.862;4.360;2023-12-20T05:47:22;6.10;99.90
20125;DHT22;10223;50.862;4.360;2023-12-20T05:49:50;6.20;99.90
20125;DHT22;10223;50.862;4.360;2023-12-20T05:52:17;6.10;99.90
20125;DHT22;10223;50.862;4.360;2023-12-20T05:54:44;5.90;99.90
20125;DHT22;10223;50.862;4.360;2023-12-20T05:57:11;6.00;99.90
20125;DHT22;10223;50.862;4.360;2023-12-20T05:59:38;5.90;99.90
20125;DHT22;10223;50.862;4.360;2023-12-20T06:02:05;6.00;99.90
20125;DHT22;10223;50.862;4.360;2023-12-20T06:04:32;6.00;99.90
20125;DHT22;10223;50.862;4.360;2023-12-20T06:07:00;5.90;99.90
20125;DHT22;10223;50.862;4.360;2023-12-20T06:09:27;5.90;99.90
20125;DHT22;10223;50.862;4.360;2023-12-20T06:11:57;6.00;99.90
20125;DHT22;10223;50.862;4.360;2023-12-20T06:14:24;5.90;99.90
20125;DHT22;10223;50.862;4.360;2023-12-20T06:16:51;5.90;99.90
20125;DHT22;10223;50.862;4.360;2023-12-20T06:19:18;5.90;99.90
20125;DHT22;10223;50.862;4.360;2023-12-20T06:21:45;5.90;99.90
20125;DHT22;10223;50.862;4.360;2023-12-20T06:24:13;5.90;99.90
20125;DHT22;10223;50.862;4.360;2023-12-20T06:26:40;6.10;99.90
20125;DHT22;10223;50.862;4.360;2023-12-20T06:29:07;6.10;99.90
20125;DHT22;10223;50.862;4.360;2023-12-20T06:31:34;5.90;99.90
20125;DHT22;10223;50.862;4.360;2023-12-20T06:34:01;5.90;99.90
20125;DHT22;10223;50.862;4.360;2023-12-20T06:36:28;6.00;99.90
20125;DHT22;10223;50.862;4.360;2023-12-20T06:38:55;5.90;99.90
20125;DHT22;10223;50.862;4.360;2023-12-20T06:41:24;5.90;99.90
20125;DHT22;10223;50.862;4.360;2023-12-20T06:43:51;6.00;99.90
20125;DHT22;10223;50.862;4.360;2023-12-20T06:46:18;5.90;99.90
20125;DHT22;10223;50.862;4.360;2023-12-20T06:48:45;5.90;99.90
20125;DHT22;10223;50.862;4.360;2023-12-20T06:51:13;5.90;99.90
20125;DHT22;10223;50.862;4.360;2023-12-20T06:53:40;6.00;99.90
20125;DHT22;10223;50.862;4.360;2023-12-20T06:56:08;5.90;99.90
20125;DHT22;10223;50.862;4.360;2023-12-20T06:58:37;5.80;99.90
20125;DHT22;10223;50.862;4.360;2023-12-20T07:01:04;5.90;99.90
20125;DHT22;10223;50.862;4.360;2023-12-20T07:03:31;5.80;99.90
20125;DHT22;10223;50.862;4.360;2023-12-20T07:05:58;5.90;99.90
20125;DHT22;10223;50.862;4.360;2023-12-20T07:08:25;5.80;99.90
20125;DHT22;10223;50.862;4.360;2023-12-20T07:10:52;5.80;99.90
20125;DHT22;10223;50.862;4.360;2023-12-20T07:13:19;5.70;99.90
20125;DHT22;10223;50.862;4.360;2023-12-20T07:15:47;5.70;99.90
20125;DHT22;10223;50.862;4.360;2023-12-20T07:18:14;6.00;99.90
20125;DHT22;10223;50.862;4.360;2023-12-20T07:20:41;5.80;99.90
20125;DHT22;10223;50.862;4.360;2023-12-20T07:23:09;5.70;99.90
20125;DHT22;10223;50.862;4.360;2023-12-20T07:25:36;5.80;99.90
20125;DHT22;10223;50.862;4.360;2023-12-20T07:28:03;5.70;99.90
20125;DHT22;10223;50.862;4.360;2023-12-20T07:30:30;5.70;99.90
20125;DHT22;10223;50.862;4.360;2023-12-20T07:32:59;5.70;99.90
20125;DHT22;10223;50.862;4.360;2023-12-20T07:35:32;5.70;99.90
20125;DHT22;10223;50.862;4.360;2023-12-20T07:37:59;5.70;99.90
20125;DHT22;10223;50.862;4.360;2023-12-20T07:40:28;5.80;99.90
20125;DHT22;10223;50.862;4.360;2023-12-20T07:42:55;5.60;99.90
20125;DHT22;10223;50.862;4.360;2023-12-20T07:45:22;5.70;99.90
20125;DHT22;10223;50.862;4.360;2023-12-20T07:47:48;5.70;99.90
20125;DHT22;10223;50.862;4.360;2023-12-20T07:50:17;5.70;99.90
20125;DHT22;10223;50.862;4.360;2023-12-20T07:52:44;5.50;99.90
20125;DHT22;10223;50.862;4.360;2023-12-20T07:55:11;5.60;99.90
20125;DHT22;10223;50.862;4.360;2023-12-20T07:57:38;5.40;99.90
20125;DHT22;10223;50.862;4.360;2023-12-20T08:00:06;5.50;99.90
20125;DHT22;10223;50.862;4.360;2023-12-20T08:02:33;5.50;99.90
20125;DHT22;10223;50.862;4.360;2023-12-20T08:05:00;5.50;99.90
20125;DHT22;10223;50.862;4.360;2023-12-20T08:07:29;5.60;99.90
20125;DHT22;10223;50.862;4.360;2023-12-20T08:09:56;5.70;99.90
20125;DHT22;10223;50.862;4.360;2023-12-20T08:12:23;5.80;99.90
20125;DHT22;10223;50.862;4.360;2023-12-20T08:14:53;5.70;99.90
20125;DHT22;10223;50.862;4.360;2023-12-20T08:17:20;5.80;99.90
20125;DHT22;10223;50.862;4.360;2023-12-20T08:19:48;5.80;99.90
20125;DHT22;10223;50.862;4.360;2023-12-20T08:22:15;6.00;99.90
20125;DHT22;10223;50.862;4.360;2023-12-20T08:24:44;6.00;99.90
20125;DHT22;10223;50.862;4.360;2023-12-20T08:27:11;6.10;99.90
20125;DHT22;10223;50.862;4.360;2023-12-20T08:29:38;6.20;99.90
20125;DHT22;10223;50.862;4.360;2023-12-20T08:32:07;6.20;99.90
20125;DHT22;10223;50.862;4.360;2023-12-20T08:34:34;6.30;99.90
20125;DHT22;10223;50.862;4.360;2023-12-20T08:37:01;6.40;99.90
20125;DHT22;10223;50.862;4.360;2023-12-20T08:39:28;6.50;99.90
20125;DHT22;10223;50.862;4.360;2023-12-20T08:41:57;6.70;99.90
20125;DHT22;10223;50.862;4.360;2023-12-20T08:44:24;6.50;99.90
20125;DHT22;10223;50.862;4.360;2023-12-20T08:46:51;6.60;99.90
20125;DHT22;10223;50.862;4.360;2023-12-20T08:49:18;6.70;99.90
20125;DHT22;10223;50.862;4.360;2023-12-20T08:51:45;6.70;99.90
20125;DHT22;10223;50.862;4.360;2023-12-20T08:54:12;6.70;99.90
20125;DHT22;10223;50.862;4.360;2023-12-20T08:56:39;6.90;99.90
20125;DHT22;10223;50.862;4.360;2023-12-20T08:59:07;6.70;99.90
20125;DHT22;10223;50.862;4.360;2023-12-20T09:01:35;6.90;99.90
20125;DHT22;10223;50.862;4.360;2023-12-20T09:04:01;7.00;99.90
20125;DHT22;10223;50.862;4.360;2023-12-20T09:06:28;7.20;99.90
20125;DHT22;10223;50.862;4.360;2023-12-20T09:08:55;7.00;99.90
20125;DHT22;10223;50.862;4.360;2023-12-20T09:11:22;7.00;99.90
20125;DHT22;10223;50.862;4.360;2023-12-20T09:13:49;7.10;99.90
20125;DHT22;10223;50.862;4.360;2023-12-20T09:16:17;7.30;99.90
20125;DHT22;10223;50.862;4.360;2023-12-20T09:18:44;7.30;99.90
20125;DHT22;10223;50.862;4.360;2023-12-20T09:21:11;7.40;99.90
20125;DHT22;10223;50.862;4.360;2023-12-20T09:23:39;7.60;99.90
20125;DHT22;10223;50.862;4.360;2023-12-20T09:26:06;7.60;99.90
20125;DHT22;10223;50.862;4.360;2023-12-20T09:28:33;7.50;99.90
20125;DHT22;10223;50.862;4.360;2023-12-20T09:31:03;7.80;99.90
20125;DHT22;10223;50.862;4.360;2023-12-20T09:33:32;7.80;99.90
20125;DHT22;10223;50.862;4.360;2023-12-20T09:35:59;8.00;99.90
20125;DHT22;10223;50.862;4.360;2023-12-20T09:38:26;8.10;99.90
20125;DHT22;10223;50.862;4.360;2023-12-20T09:40:54;8.20;99.90
20125;DHT22;10223;50.862;4.360;2023-12-20T09:43:24;8.10;99.90
20125;DHT22;10223;50.862;4.360;2023-12-20T09:45:54;8.10;99.90
20125;DHT22;10223;50.862;4.360;2023-12-20T09:48:26;7.90;99.90
20125;DHT22;10223;50.862;4.360;2023-12-20T09:50:56;8.00;99.90
20125;DHT22;10223;50.862;4.360;2023-12-20T09:53:23;7.90;99.90
20125;DHT22;10223;50.862;4.360;2023-12-20T09:55:56;7.70;99.90
20125;DHT22;10223;50.862;4.360;2023-12-20T09:58:24;7.60;99.90
20125;DHT22;10223;50.862;4.360;2023-12-20T10:00:51;7.60;99.90
20125;DHT22;10223;50.862;4.360;2023-12-20T10:03:24;7.50;99.90
20125;DHT22;10223;50.862;4.360;2023-12-20T10:05:53;7.50;99.90
20125;DHT22;10223;50.862;4.360;2023-12-20T10:08:22;7.50;99.90
20125;DHT22;10223;50.862;4.360;2023-12-20T10:10:50;7.40;99.90
20125;DHT22;10223;50.862;4.360;2023-12-20T10:13:17;7.30;99.90
20125;DHT22;10223;50.862;4.360;2023-12-20T10:15:44;7.50;99.90
20125;DHT22;10223;50.862;4.360;2023-12-20T10:18:12;7.60;99.90
20125;DHT22;10223;50.862;4.360;2023-12-20T10:20:40;7.90;99.90
20125;DHT22;10223;50.862;4.360;2023-12-20T10:23:07;8.00;99.90
20125;DHT22;10223;50.862;4.360;2023-12-20T10:25:36;8.10;99.90
20125;DHT22;10223;50.862;4.360;2023-12-20T10:28:11;7.90;99.90
20125;DHT22;10223;50.862;4.360;2023-12-20T10:30:39;7.90;99.90
20125;DHT22;10223;50.862;4.360;2023-12-20T10:33:07;7.80;99.90
20125;DHT22;10223;50.862;4.360;2023-12-20T10:35:34;7.90;99.90
20125;DHT22;10223;50.862;4.360;2023-12-20T10:38:04;7.80;99.90
20125;DHT22;10223;50.862;4.360;2023-12-20T10:40:36;7.90;99.90
20125;DHT22;10223;50.862;4.360;2023-12-20T10:43:03;7.80;99.90
20125;DHT22;10223;50.862;4.360;2023-12-20T10:45:30;7.80;99.90
20125;DHT22;10223;50.862;4.360;2023-12-20T10:47:58;7.80;99.90
20125;DHT22;10223;50.862;4.360;2023-12-20T10:50:26;7.80;99.90
20125;DHT22;10223;50.862;4.360;2023-12-20T10:52:54;7.70;99.90
20125;DHT22;10223;50.862;4.360;2023-12-20T10:55:22;7.80;99.90
20125;DHT22;10223;50.862;4.360;2023-12-20T10:57:51;7.80;99.90
20125;DHT22;10223;50.862;4.360;2023-12-20T11:00:19;7.80;99.90
20125;DHT22;10223;50.862;4.360;2023-12-20T11:02:49;7.90;99.90
20125;DHT22;10223;50.862;4.360;2023-12-20T11:05:26;7.90;99.90
20125;DHT22;10223;50.862;4.360;2023-12-20T11:08:02;7.90;99.90
20125;DHT22;10223;50.862;4.360;2023-12-20T11:10:33;8.00;99.90
20125;DHT22;10223;50.862;4.360;2023-12-20T11:13:08;8.00;99.90
20125;DHT22;10223;50.862;4.360;2023-12-20T11:15:37;8.00;99.90
20125;DHT22;10223;50.862;4.360;2023-12-20T11:18:04;8.10;99.90
20125;DHT22;10223;50.862;4.360;2023-12-20T11:20:36;8.00;99.90
20125;DHT22;10223;50.862;4.360;2023-12-20T11:23:04;8.00;99.90
20125;DHT22;10223;50.862;4.360;2023-12-20T11:25:45;8.00;99.90
20125;DHT22;10223;50.862;4.360;2023-12-20T11:28:14;7.90;99.90
20125;DHT22;10223;50.862;4.360;2023-12-20T11:30:47;7.90;99.90
20125;DHT22;10223;50.862;4.360;2023-12-20T11:33:14;8.00;99.90
20125;DHT22;10223;50.862;4.360;2023-12-20T11:35:42;8.00;99.90
20125;DHT22;10223;50.862;4.360;2023-12-20T11:38:09;8.10;99.90
20125;DHT22;10223;50.862;4.360;2023-12-20T11:40:37;8.00;99.90
20125;DHT22;10223;50.862;4.360;2023-12-20T11:43:04;8.00;99.90
20125;DHT22;10223;50.862;4.360;2023-12-20T11:45:33;8.00;99.90
20125;DHT22;10223;50.862;4.360;2023-12-20T11:48:01;8.00;99.90
20125;DHT22;10223;50.862;4.360;2023-12-20T11:50:29;8.00;99.90
20125;DHT22;10223;50.862;4.360;2023-12-20T11:52:56;8.00;99.90
20125;DHT22;10223;50.862;4.360;2023-12-20T11:55:24;8.00;99.90
20125;DHT22;10223;50.862;4.360;2023-12-20T11:57:51;8.00;99.90
20125;DHT22;10223;50.862;4.360;2023-12-20T12:00:19;8.10;99.90
20125;DHT22;10223;50.862;4.360;2023-12-20T12:02:58;8.10;99.90
20125;DHT22;10223;50.862;4.360;2023-12-20T12:05:25;8.20;99.90
20125;DHT22;10223;50.862;4.360;2023-12-20T12:07:53;8.10;99.90
20125;DHT22;10223;50.862;4.360;2023-12-20T12:10:20;8.20;99.90
20125;DHT22;10223;50.862;4.360;2023-12-20T12:12:47;8.30;99.90
20125;DHT22;10223;50.862;4.360;2023-12-20T12:15:15;8.20;99.90
20125;DHT22;10223;50.862;4.360;2023-12-20T12:17:42;8.20;99.90
20125;DHT22;10223;50.862;4.360;2023-12-20T12:20:10;8.30;99.90
20125;DHT22;10223;50.862;4.360;2023-12-20T12:22:38;8.30;99.90
20125;DHT22;10223;50.862;4.360;2023-12-20T12:25:12;8.30;99.90
20125;DHT22;10223;50.862;4.360;2023-12-20T12:27:40;8.40;99.90
20125;DHT22;10223;50.862;4.360;2023-12-20T12:30:08;8.30;99.90
20125;DHT22;10223;50.862;4.360;2023-12-20T12:32:38;8.40;99.90
20125;DHT22;10223;50.862;4.360;2023-12-20T12:35:05;8.50;99.90
20125;DHT22;10223;50.862;4.360;2023-12-20T12:37:37;8.50;99.90
20125;DHT22;10223;50.862;4.360;2023-12-20T12:40:06;8.40;99.90
20125;DHT22;10223;50.862;4.360;2023-12-20T12:42:34;8.50;99.90
20125;DHT22;10223;50.862;4.360;2023-12-20T12:45:01;8.50;99.90
20125;DHT22;10223;50.862;4.360;2023-12-20T12:47:28;8.50;99.90
20125;DHT22;10223;50.862;4.360;2023-12-20T12:49:55;8.50;99.90
20125;DHT22;10223;50.862;4.360;2023-12-20T12:52:22;8.50;99.90
20125;DHT22;10223;50.862;4.360;2023-12-20T12:54:51;8.50;99.90
20125;DHT22;10223;50.862;4.360;2023-12-20T12:57:18;8.50;99.90
20125;DHT22;10223;50.862;4.360;2023-12-20T12:59:48;8.60;99.90
20125;DHT22;10223;50.862;4.360;2023-12-20T13:02:15;8.60;99.90
20125;DHT22;10223;50.862;4.360;2023-12-20T13:04:43;8.50;99.90
20125;DHT22;10223;50.862;4.360;2023-12-20T13:07:10;8.50;99.90
20125;DHT22;10223;50.862;4.360;2023-12-20T13:09:37;8.50;99.90
20125;DHT22;10223;50.862;4.360;2023-12-20T13:12:06;8.60;99.90
20125;DHT22;10223;50.862;4.360;2023-12-20T13:14:34;8.60;99.90
20125;DHT22;10223;50.862;4.360;2023-12-20T13:17:02;8.50;99.90
20125;DHT22;10223;50.862;4.360;2023-12-20T13:19:29;8.50;99.90
20125;DHT22;10223;50.862;4.360;2023-12-20T13:21:57;8.60;99.90
20125;DHT22;10223;50.862;4.360;2023-12-20T13:24:24;8.60;99.90
20125;DHT22;10223;50.862;4.360;2023-12-20T13:26:51;8.70;99.90
20125;DHT22;10223;50.862;4.360;2023-12-20T13:29:19;8.70;99.90
20125;DHT22;10223;50.862;4.360;2023-12-20T13:31:46;8.70;99.90
20125;DHT22;10223;50.862;4.360;2023-12-20T13:34:13;8.70;99.90
20125;DHT22;10223;50.862;4.360;2023-12-20T13:36:43;8.70;99.90
20125;DHT22;10223;50.862;4.360;2023-12-20T13:39:13;8.80;99.90
20125;DHT22;10223;50.862;4.360;2023-12-20T13:41:40;8.80;99.90
20125;DHT22;10223;50.862;4.360;2023-12-20T13:44:07;8.90;99.90
20125;DHT22;10223;50.862;4.360;2023-12-20T13:46:36;8.90;99.90
20125;DHT22;10223;50.862;4.360;2023-12-20T13:49:03;8.80;99.90
20125;DHT22;10223;50.862;4.360;2023-12-20T13:51:30;8.80;99.90
20125;DHT22;10223;50.862;4.360;2023-12-20T13:53:57;8.80;99.90
20125;DHT22;10223;50.862;4.360;2023-12-20T13:56:24;8.90;99.90
20125;DHT22;10223;50.862;4.360;2023-12-20T13:58:51;8.90;99.90
20125;DHT22;10223;50.862;4.360;2023-12-20T14:01:18;8.90;99.90
20125;DHT22;10223;50.862;4.360;2023-12-20T14:03:47;8.90;99.90
20125;DHT22;10223;50.862;4.360;2023-12-20T14:06:14;8.90;99.90
20125;DHT22;10223;50.862;4.360;2023-12-20T14:08:42;8.80;99.90
20125;DHT22;10223;50.862;4.360;2023-12-20T14:11:09;8.80;99.90
20125;DHT22;10223;50.862;4.360;2023-12-20T14:13:36;8.90;99.90
20125;DHT22;10223;50.862;4.360;2023-12-20T14:16:03;9.10;99.90
20125;DHT22;10223;50.862;4.360;2023-12-20T14:18:30;9.00;99.90
20125;DHT22;10223;50.862;4.360;2023-12-20T14:20:59;8.90;99.90
20125;DHT22;10223;50.862;4.360;2023-12-20T14:23:27;9.00;99.90
20125;DHT22;10223;50.862;4.360;2023-12-20T14:25:54;9.00;99.90
20125;DHT22;10223;50.862;4.360;2023-12-20T14:28:24;9.00;99.90
20125;DHT22;10223;50.862;4.360;2023-12-20T14:30:51;9.00;99.90
20125;DHT22;10223;50.862;4.360;2023-12-20T14:33:18;9.00;99.90
20125;DHT22;10223;50.862;4.360;2023-12-20T14:35:47;9.00;99.90
20125;DHT22;10223;50.862;4.360;2023-12-20T14:38:15;9.00;99.90
20125;DHT22;10223;50.862;4.360;2023-12-20T14:40:44;9.00;99.90
20125;DHT22;10223;50.862;4.360;2023-12-20T14:43:11;8.90;99.90
20125;DHT22;10223;50.862;4.360;2023-12-20T14:45:38;9.00;99.90
20125;DHT22;10223;50.862;4.360;2023-12-20T14:48:06;9.10;99.90
20125;DHT22;10223;50.862;4.360;2023-12-20T14:50:33;9.00;99.90
20125;DHT22;10223;50.862;4.360;2023-12-20T14:53:02;9.00;99.90
20125;DHT22;10223;50.862;4.360;2023-12-20T14:55:30;9.00;99.90
20125;DHT22;10223;50.862;4.360;2023-12-20T14:57:58;9.00;99.90
20125;DHT22;10223;50.862;4.360;2023-12-20T15:00:25;9.00;99.90
20125;DHT22;10223;50.862;4.360;2023-12-20T15:02:52;9.00;99.90
20125;DHT22;10223;50.862;4.360;2023-12-20T15:05:19;9.10;99.90
20125;DHT22;10223;50.862;4.360;2023-12-20T15:07:47;9.10;99.90
20125;DHT22;10223;50.862;4.360;2023-12-20T15:10:14;9.20;99.90
20125;DHT22;10223;50.862;4.360;2023-12-20T15:12:45;9.20;99.90
20125;DHT22;10223;50.862;4.360;2023-12-20T15:15:12;9.20;99.90
20125;DHT22;10223;50.862;4.360;2023-12-20T15:17:39;9.20;99.90
20125;DHT22;10223;50.862;4.360;2023-12-20T15:20:07;9.20;99.90
20125;DHT22;10223;50.862;4.360;2023-12-20T15:22:35;9.10;99.90
20125;DHT22;10223;50.862;4.360;2023-12-20T15:25:03;9.20;99.90
20125;DHT22;10223;50.862;4.360;2023-12-20T15:27:32;9.10;99.90
20125;DHT22;10223;50.862;4.360;2023-12-20T15:30:03;9.10;99.90
20125;DHT22;10223;50.862;4.360;2023-12-20T15:32:30;9.10;99.90
20125;DHT22;10223;50.862;4.360;2023-12-20T15:34:58;9.20;99.90
20125;DHT22;10223;50.862;4.360;2023-12-20T15:37:25;9.20;99.90
20125;DHT22;10223;50.862;4.360;2023-12-20T15:39:52;9.20;99.90
20125;DHT22;10223;50.862;4.360;2023-12-20T15:42:19;9.20;99.90
20125;DHT22;10223;50.862;4.360;2023-12-20T15:44:46;9.20;99.90
20125;DHT22;10223;50.862;4.360;2023-12-20T15:47:15;9.20;99.90